sensor_id;sensor_type;location;lat;lon;timestamp;pressure;altitude;pressure_sealevel;temperature;humidity
3132;BME280;62090;52.330;9.104;2023-08-06T00:01:18;100164.66;;;18.05;99.64
3132;BME280;62090;52.330;9.104;2023-08-06T00:03:49;100161.22;;;18.04;99.76
3132;BME280;62090;52.330;9.104;2023-08-06T00:06:19;100165.44;;;18.10;100.00
3132;BME280;62090;52.330;9.104;2023-08-06T00:08:52;100144.84;;;18.07;100.00
3132;BME280;62090;52.330;9.104;2023-08-06T00:11:23;100161.91;;;18.14;99.34
3132;BME280;62090;52.330;9.104;2023-08-06T00:13:53;100166.19;;;18.15;99.75
3132;BME280;62090;52.330;9.104;2023-08-06T00:16:22;100125.28;;;17.94;99.81
3132;BME280;62090;52.330;9.104;2023-08-06T00:18:52;100145.81;;;18.01;99.57
3132;BME280;62090;52.330;9.104;2023-08-06T00:21:22;100152.84;;;17.89;100.00
3132;BME280;62090;52.330;9.104;2023-08-06T00:23:54;100143.41;;;17.88;100.00
3132;BME280;62090;52.330;9.104;2023-08-06T00:26:25;100087.16;;;17.57;99.19
3132;BME280;62090;52.330;9.104;2023-08-06T00:28:54;100139.19;;;17.85;100.00
3132;BME280;62090;52.330;9.104;2023-08-06T00:31:26;100112.69;;;17.76;100.00
3132;BME280;62090;52.330;9.104;2023-08-06T00:33:56;100134.81;;;17.87;100.00
3132;BME280;62090;52.330;9.104;2023-08-06T00:36:26;100138.22;;;17.91;100.00
3132;BME280;62090;52.330;9.104;2023-08-06T00:38:58;100129.56;;;17.95;100.00
3132;BME280;62090;52.330;9.104;2023-08-06T00:41:28;100130.66;;;17.79;100.00
3132;BME280;62090;52.330;9.104;2023-08-06T00:43:58;100083.00;;;17.46;100.00
3132;BME280;62090;52.330;9.104;2023-08-06T00:46:28;100122.31;;;17.63;100.00
3132;BME280;62090;52.330;9.104;2023-08-06T00:48:58;100115.56;;;17.51;100.00
3132;BME280;62090;52.330;9.104;2023-08-06T00:51:29;100112.91;;;17.60;100.00
3132;BME280;62090;52.330;9.104;2023-08-06T00:54:02;100110.22;;;17.68;100.00
3132;BME280;62090;52.330;9.104;2023-08-06T00:56:34;100115.44;;;17.65;100.00
3132;BME280;62090;52.330;9.104;2023-08-06T00:59:04;100106.84;;;17.63;100.00
3132;BME280;62090;52.330;9.104;2023-08-06T01:01:35;100068.47;;;17.43;100.00
3132;BME280;62090;52.330;9.104;2023-08-06T01:04:05;100099.91;;;17.66;100.00
3132;BME280;62090;52.330;9.104;2023-08-06T01:06:39;100100.75;;;17.68;100.00
3132;BME280;62090;52.330;9.104;2023-08-06T01:09:24;100093.19;;;17.59;100.00
3132;BME280;62090;52.330;9.104;2023-08-06T01:12:06;100088.84;;;17.58;100.00
3132;BME280;62090;52.330;9.104;2023-08-06T01:14:47;100071.84;;;17.48;100.00
3132;BME280;62090;52.330;9.104;2023-08-06T01:17:17;100013.94;;;17.14;100.00
3132;BME280;62090;52.330;9.104;2023-08-06T01:19:47;100067.44;;;17.55;100.00
3132;BME280;62090;52.330;9.104;2023-08-06T01:22:20;100069.13;;;17.56;100.00
3132;BME280;62090;52.330;9.104;2023-08-06T01:24:50;100069.13;;;17.56;100.00
3132;BME280;62090;52.330;9.104;2023-08-06T01:27:24;100066.53;;;17.57;100.00
3132;BME280;62090;52.330;9.104;2023-08-06T01:30:02;100057.09;;;17.59;100.00
3132;BME280;62090;52.330;9.104;2023-08-06T01:32:34;100052.94;;;17.49;100.00
3132;BME280;62090;52.330;9.104;2023-08-06T01:35:07;100057.03;;;17.62;100.00
3132;BME280;62090;52.330;9.104;2023-08-06T01:37:42;100062.22;;;17.61;100.00
3132;BME280;62090;52.330;9.104;2023-08-06T01:40:13;100063.19;;;17.52;100.00
3132;BME280;62090;52.330;9.104;2023-08-06T01:42:43;100060.78;;;17.40;100.00
3132;BME280;62090;52.330;9.104;2023-08-06T01:45:14;100069.34;;;17.42;100.00
3132;BME280;62090;52.330;9.104;2023-08-06T01:47:44;100063.47;;;17.33;100.00
3132;BME280;62090;52.330;9.104;2023-08-06T01:50:14;100063.56;;;17.25;100.00
3132;BME280;62090;52.330;9.104;2023-08-06T01:52:47;100056.63;;;17.30;100.00
3132;BME280;62090;52.330;9.104;2023-08-06T01:55:18;100035.31;;;17.19;100.00
3132;BME280;62090;52.330;9.104;2023-08-06T01:57:48;100029.28;;;17.23;100.00
3132;BME280;62090;52.330;9.104;2023-08-06T02:00:18;100049.66;;;17.38;100.00
3132;BME280;62090;52.330;9.104;2023-08-06T02:02:48;100025.91;;;17.18;100.00
3132;BME280;62090;52.330;9.104;2023-08-06T02:05:18;99993.63;;;16.93;100.00
3132;BME280;62090;52.330;9.104;2023-08-06T02:07:50;100020.72;;;17.21;100.00
3132;BME280;62090;52.330;9.104;2023-08-06T02:10:20;100031.78;;;17.27;100.00
3132;BME280;62090;52.330;9.104;2023-08-06T02:12:50;99961.03;;;16.93;100.00
3132;BME280;62090;52.330;9.104;2023-08-06T02:15:20;100029.91;;;17.37;100.00
3132;BME280;62090;52.330;9.104;2023-08-06T02:17:50;99983.97;;;17.11;100.00
3132;BME280;62090;52.330;9.104;2023-08-06T02:20:20;100020.53;;;17.33;100.00
3132;BME280;62090;52.330;9.104;2023-08-06T02:22:52;100017.84;;;17.41;100.00
3132;BME280;62090;52.330;9.104;2023-08-06T02:25:22;100026.56;;;17.34;100.00
3132;BME280;62090;52.330;9.104;2023-08-06T02:27:52;100015.31;;;17.39;100.00
3132;BME280;62090;52.330;9.104;2023-08-06T02:30:21;100008.44;;;17.38;100.00
3132;BME280;62090;52.330;9.104;2023-08-06T02:32:52;100009.38;;;17.34;100.00
3132;BME280;62090;52.330;9.104;2023-08-06T02:35:22;100020.47;;;17.39;100.00
3132;BME280;62090;52.330;9.104;2023-08-06T02:37:54;100007.59;;;17.38;100.00
3132;BME280;62090;52.330;9.104;2023-08-06T02:40:24;99971.81;;;17.19;100.00
3132;BME280;62090;52.330;9.104;2023-08-06T02:42:55;99989.75;;;17.24;100.00
3132;BME280;62090;52.330;9.104;2023-08-06T02:45:25;99999.97;;;17.30;100.00
3132;BME280;62090;52.330;9.104;2023-08-06T02:47:55;99999.16;;;17.28;100.00
3132;BME280;62090;52.330;9.104;2023-08-06T02:50:24;99995.69;;;17.29;100.00
3132;BME280;62090;52.330;9.104;2023-08-06T02:52:57;99979.53;;;17.21;100.00
3132;BME280;62090;52.330;9.104;2023-08-06T02:55:27;99964.94;;;17.18;100.00
3132;BME280;62090;52.330;9.104;2023-08-06T02:57:57;99964.91;;;17.23;100.00
3132;BME280;62090;52.330;9.104;2023-08-06T03:00:29;99973.34;;;17.33;100.00
3132;BME280;62090;52.330;9.104;2023-08-06T03:03:01;99975.00;;;17.35;100.00
3132;BME280;62090;52.330;9.104;2023-08-06T03:05:51;99962.44;;;17.14;100.00
3132;BME280;62090;52.330;9.104;2023-08-06T03:08:35;99946.34;;;17.01;100.00
3132;BME280;62090;52.330;9.104;2023-08-06T03:11:05;99925.06;;;16.92;100.00
3132;BME280;62090;52.330;9.104;2023-08-06T03:13:35;99957.59;;;16.94;100.00
3132;BME280;62090;52.330;9.104;2023-08-06T03:16:05;99944.72;;;16.94;100.00
3132;BME280;62090;52.330;9.104;2023-08-06T03:18:35;99951.50;;;17.01;100.00
3132;BME280;62090;52.330;9.104;2023-08-06T03:21:07;99949.78;;;17.00;100.00
3132;BME280;62090;52.330;9.104;2023-08-06T03:23:40;99950.63;;;17.02;100.00
3132;BME280;62090;52.330;9.104;2023-08-06T03:26:10;99946.28;;;17.06;100.00
3132;BME280;62090;52.330;9.104;2023-08-06T03:28:40;99944.53;;;17.08;100.00
3132;BME280;62090;52.330;9.104;2023-08-06T03:31:10;99944.56;;;17.06;100.00
3132;BME280;62090;52.330;9.104;2023-08-06T03:33:42;99935.06;;;17.10;100.00
3132;BME280;62090;52.330;9.104;2023-08-06T03:36:15;99933.44;;;17.03;100.00
3132;BME280;62090;52.330;9.104;2023-08-06T03:38:48;99934.34;;;17.02;100.00
3132;BME280;62090;52.330;9.104;2023-08-06T03:41:18;99930.09;;;16.98;100.00
3132;BME280;62090;52.330;9.104;2023-08-06T03:43:49;99930.19;;;16.92;100.00
3132;BME280;62090;52.330;9.104;2023-08-06T03:46:24;99930.19;;;16.92;100.00
3132;BME280;62090;52.330;9.104;2023-08-06T03:48:54;99924.28;;;16.83;100.00
3132;BME280;62090;52.330;9.104;2023-08-06T03:51:25;99923.50;;;16.78;100.00
3132;BME280;62090;52.330;9.104;2023-08-06T03:53:58;99920.91;;;16.80;100.00
3132;BME280;62090;52.330;9.104;2023-08-06T03:56:29;99930.38;;;16.76;100.00
3132;BME280;62090;52.330;9.104;2023-08-06T03:58:59;99874.16;;;16.49;100.00
3132;BME280;62090;52.330;9.104;2023-08-06T04:01:29;99927.00;;;16.74;100.00
3132;BME280;62090;52.330;9.104;2023-08-06T04:03:59;99914.31;;;16.58;100.00
3132;BME280;62090;52.330;9.104;2023-08-06T04:06:29;99927.84;;;16.75;100.00
3132;BME280;62090;52.330;9.104;2023-08-06T04:09:01;99913.28;;;16.72;100.00
3132;BME280;62090;52.330;9.104;2023-08-06T04:11:31;99922.81;;;16.66;100.00
3132;BME280;62090;52.330;9.104;2023-08-06T04:14:02;99906.59;;;16.61;100.00
3132;BME280;62090;52.330;9.104;2023-08-06T04:16:32;99851.06;;;16.44;100.00
3132;BME280;62090;52.330;9.104;2023-08-06T04:19:01;99893.56;;;16.74;100.00
3132;BME280;62090;52.330;9.104;2023-08-06T04:21:32;99913.16;;;16.81;100.00
3132;BME280;62090;52.330;9.104;2023-08-06T04:24:06;99924.41;;;16.76;100.00
3132;BME280;62090;52.330;9.104;2023-08-06T04:26:36;99931.44;;;16.63;100.00
3132;BME280;62090;52.330;9.104;2023-08-06T04:29:06;99932.34;;;16.59;100.00
3132;BME280;62090;52.330;9.104;2023-08-06T04:31:36;99943.50;;;16.57;100.00
3132;BME280;62090;52.330;9.104;2023-08-06T04:34:05;99939.19;;;16.57;100.00
3132;BME280;62090;52.330;9.104;2023-08-06T04:36:37;99939.19;;;16.60;100.00
3132;BME280;62090;52.330;9.104;2023-08-06T04:39:11;99933.22;;;16.60;100.00
3132;BME280;62090;52.330;9.104;2023-08-06T04:41:41;99927.16;;;16.62;100.00
3132;BME280;62090;52.330;9.104;2023-08-06T04:44:11;99923.63;;;16.69;100.00
3132;BME280;62090;52.330;9.104;2023-08-06T04:46:41;99949.25;;;16.78;100.00
3132;BME280;62090;52.330;9.104;2023-08-06T04:49:11;99946.69;;;16.77;100.00
3132;BME280;62090;52.330;9.104;2023-08-06T04:51:41;99942.50;;;16.70;100.00
3132;BME280;62090;52.330;9.104;2023-08-06T04:54:13;99916.09;;;16.53;100.00
3132;BME280;62090;52.330;9.104;2023-08-06T04:56:43;99944.28;;;16.65;100.00
3132;BME280;62090;52.330;9.104;2023-08-06T04:59:13;99936.69;;;16.54;100.00
3132;BME280;62090;52.330;9.104;2023-08-06T05:01:43;99944.31;;;16.62;100.00
3132;BME280;62090;52.330;9.104;2023-08-06T05:04:13;99913.63;;;16.45;100.00
3132;BME280;62090;52.330;9.104;2023-08-06T05:06:43;99910.25;;;16.43;100.00
3132;BME280;62090;52.330;9.104;2023-08-06T05:09:15;99947.75;;;16.62;100.00
3132;BME280;62090;52.330;9.104;2023-08-06T05:11:46;99940.97;;;16.52;100.00
3132;BME280;62090;52.330;9.104;2023-08-06T05:14:16;99942.72;;;16.50;100.00
3132;BME280;62090;52.330;9.104;2023-08-06T05:16:45;99947.03;;;16.50;100.00
3132;BME280;62090;52.330;9.104;2023-08-06T05:19:15;99948.63;;;16.57;100.00
3132;BME280;62090;52.330;9.104;2023-08-06T05:21:45;99931.59;;;16.50;100.00
3132;BME280;62090;52.330;9.104;2023-08-06T05:24:18;99944.31;;;16.60;100.00
3132;BME280;62090;52.330;9.104;2023-08-06T05:26:48;99943.44;;;16.63;100.00
3132;BME280;62090;52.330;9.104;2023-08-06T05:29:18;99939.16;;;16.62;100.00
3132;BME280;62090;52.330;9.104;2023-08-06T05:31:48;99910.13;;;16.52;100.00
3132;BME280;62090;52.330;9.104;2023-08-06T05:34:19;99933.81;;;16.77;100.00
3132;BME280;62090;52.330;9.104;2023-08-06T05:36:48;99953.94;;;17.09;100.00
3132;BME280;62090;52.330;9.104;2023-08-06T05:39:22;99949.50;;;17.18;100.00
3132;BME280;62090;52.330;9.104;2023-08-06T05:41:52;99953.63;;;17.30;100.00
3132;BME280;62090;52.330;9.104;2023-08-06T05:44:23;99950.94;;;17.38;100.00
3132;BME280;62090;52.330;9.104;2023-08-06T05:46:53;99859.88;;;16.89;100.00
3132;BME280;62090;52.330;9.104;2023-08-06T05:49:22;99852.06;;;16.94;100.00
3132;BME280;62090;52.330;9.104;2023-08-06T05:51:52;99954.13;;;17.53;100.00
3132;BME280;62090;52.330;9.104;2023-08-06T05:54:25;99926.72;;;17.48;100.00
3132;BME280;62090;52.330;9.104;2023-08-06T05:56:55;99949.69;;;17.61;100.00
3132;BME280;62090;52.330;9.104;2023-08-06T05:59:25;99946.25;;;17.62;100.00
3132;BME280;62090;52.330;9.104;2023-08-06T06:01:55;99953.78;;;17.73;100.00
3132;BME280;62090;52.330;9.104;2023-08-06T06:04:25;99955.53;;;17.72;100.00
3132;BME280;62090;52.330;9.104;2023-08-06T06:06:55;99935.75;;;17.75;100.00
3132;BME280;62090;52.330;9.104;2023-08-06T06:09:27;99923.03;;;17.64;100.00
3132;BME280;62090;52.330;9.104;2023-08-06T06:11:57;99945.69;;;17.93;100.00
3132;BME280;62090;52.330;9.104;2023-08-06T06:14:27;99939.75;;;17.89;100.00
3132;BME280;62090;52.330;9.104;2023-08-06T06:16:57;99940.41;;;18.02;100.00
3132;BME280;62090;52.330;9.104;2023-08-06T06:19:27;99934.38;;;18.03;100.00
3132;BME280;62090;52.330;9.104;2023-08-06T06:21:56;99913.22;;;17.86;100.00
3132;BME280;62090;52.330;9.104;2023-08-06T06:24:29;99934.13;;;18.15;100.00
3132;BME280;62090;52.330;9.104;2023-08-06T06:26:59;99938.53;;;18.51;100.00
3132;BME280;62090;52.330;9.104;2023-08-06T06:29:29;99934.66;;;18.74;100.00
3132;BME280;62090;52.330;9.104;2023-08-06T06:31:59;99928.09;;;19.34;98.13
3132;BME280;62090;52.330;9.104;2023-08-06T06:34:28;99934.34;;;19.61;92.54
3132;BME280;62090;52.330;9.104;2023-08-06T06:36:58;99921.81;;;20.09;92.89
3132;BME280;62090;52.330;9.104;2023-08-06T06:39:31;99921.50;;;20.21;90.04
3132;BME280;62090;52.330;9.104;2023-08-06T06:42:01;99930.09;;;19.91;91.14
3132;BME280;62090;52.330;9.104;2023-08-06T06:44:36;99893.50;;;19.40;92.58
3132;BME280;62090;52.330;9.104;2023-08-06T06:47:06;99916.34;;;19.21;95.31
3132;BME280;62090;52.330;9.104;2023-08-06T06:49:36;99920.91;;;19.10;95.67
3132;BME280;62090;52.330;9.104;2023-08-06T06:52:06;99918.91;;;19.23;96.23
3132;BME280;62090;52.330;9.104;2023-08-06T06:54:39;99902.88;;;19.46;95.54
3132;BME280;62090;52.330;9.104;2023-08-06T06:57:09;99916.63;;;19.78;93.99
3132;BME280;62090;52.330;9.104;2023-08-06T06:59:38;99913.00;;;20.16;92.93
3132;BME280;62090;52.330;9.104;2023-08-06T07:02:08;99900.50;;;20.31;89.94
3132;BME280;62090;52.330;9.104;2023-08-06T07:04:38;99912.97;;;20.49;89.32
3132;BME280;62090;52.330;9.104;2023-08-06T07:07:08;99903.16;;;20.60;88.65
3132;BME280;62090;52.330;9.104;2023-08-06T07:09:41;99915.78;;;20.71;87.50
3132;BME280;62090;52.330;9.104;2023-08-06T07:12:11;99921.16;;;20.92;87.28
3132;BME280;62090;52.330;9.104;2023-08-06T07:14:40;99908.97;;;20.94;87.25
3132;BME280;62090;52.330;9.104;2023-08-06T07:17:10;99870.56;;;20.81;85.84
3132;BME280;62090;52.330;9.104;2023-08-06T07:19:40;99910.16;;;21.12;85.30
3132;BME280;62090;52.330;9.104;2023-08-06T07:22:10;99870.81;;;20.99;84.90
3132;BME280;62090;52.330;9.104;2023-08-06T07:24:43;99898.38;;;21.30;83.73
3132;BME280;62090;52.330;9.104;2023-08-06T07:27:13;99907.75;;;21.34;82.90
3132;BME280;62090;52.330;9.104;2023-08-06T07:29:43;99906.03;;;21.59;82.51
3132;BME280;62090;52.330;9.104;2023-08-06T07:32:12;99910.31;;;21.60;82.59
3132;BME280;62090;52.330;9.104;2023-08-06T07:34:42;99893.25;;;21.53;83.32
3132;BME280;62090;52.330;9.104;2023-08-06T07:37:12;99905.81;;;21.65;82.17
3132;BME280;62090;52.330;9.104;2023-08-06T07:39:45;99901.00;;;21.55;81.38
3132;BME280;62090;52.330;9.104;2023-08-06T07:42:15;99900.19;;;21.53;84.21
3132;BME280;62090;52.330;9.104;2023-08-06T07:44:51;99876.31;;;21.43;84.97
3132;BME280;62090;52.330;9.104;2023-08-06T07:47:21;99897.81;;;21.71;83.53
3132;BME280;62090;52.330;9.104;2023-08-06T07:49:51;99903.53;;;21.81;83.33
3132;BME280;62090;52.330;9.104;2023-08-06T07:52:21;99897.16;;;21.89;83.24
3132;BME280;62090;52.330;9.104;2023-08-06T07:54:54;99859.81;;;21.95;81.68
3132;BME280;62090;52.330;9.104;2023-08-06T07:57:24;99871.28;;;22.13;79.92
3132;BME280;62090;52.330;9.104;2023-08-06T07:59:54;99899.88;;;22.35;81.03
3132;BME280;62090;52.330;9.104;2023-08-06T08:02:24;99894.91;;;22.28;80.69
3132;BME280;62090;52.330;9.104;2023-08-06T08:04:54;99889.78;;;22.27;80.17
3132;BME280;62090;52.330;9.104;2023-08-06T08:07:24;99892.78;;;22.40;78.47
3132;BME280;62090;52.330;9.104;2023-08-06T08:09:58;99899.56;;;22.65;78.90
3132;BME280;62090;52.330;9.104;2023-08-06T08:12:28;99890.44;;;22.79;76.40
3132;BME280;62090;52.330;9.104;2023-08-06T08:14:58;99893.16;;;22.76;76.82
3132;BME280;62090;52.330;9.104;2023-08-06T08:17:27;99882.41;;;22.61;77.65
3132;BME280;62090;52.330;9.104;2023-08-06T08:19:57;99894.38;;;22.65;77.10
3132;BME280;62090;52.330;9.104;2023-08-06T08:22:27;99899.25;;;22.74;75.19
3132;BME280;62090;52.330;9.104;2023-08-06T08:25:00;99878.22;;;22.81;74.73
3132;BME280;62090;52.330;9.104;2023-08-06T08:27:30;99852.91;;;22.86;75.04
3132;BME280;62090;52.330;9.104;2023-08-06T08:30:00;99888.41;;;23.07;73.25
3132;BME280;62090;52.330;9.104;2023-08-06T08:32:29;99895.31;;;23.08;73.75
3132;BME280;62090;52.330;9.104;2023-08-06T08:34:59;99892.78;;;23.06;72.73
3132;BME280;62090;52.330;9.104;2023-08-06T08:37:29;99891.81;;;22.87;71.87
3132;BME280;62090;52.330;9.104;2023-08-06T08:40:02;99884.41;;;22.78;73.35
3132;BME280;62090;52.330;9.104;2023-08-06T08:42:32;99846.19;;;22.80;73.26
3132;BME280;62090;52.330;9.104;2023-08-06T08:45:04;99837.97;;;22.91;72.98
3132;BME280;62090;52.330;9.104;2023-08-06T08:47:36;99868.41;;;23.09;73.14
3132;BME280;62090;52.330;9.104;2023-08-06T08:50:08;99867.25;;;23.16;73.68
3132;BME280;62090;52.330;9.104;2023-08-06T08:52:39;99875.22;;;23.11;74.25
3132;BME280;62090;52.330;9.104;2023-08-06T08:55:14;99849.41;;;22.87;74.50
3132;BME280;62090;52.330;9.104;2023-08-06T08:57:44;99859.72;;;22.66;73.92
3132;BME280;62090;52.330;9.104;2023-08-06T09:00:14;99885.34;;;22.97;73.40
3132;BME280;62090;52.330;9.104;2023-08-06T09:02:45;99869.63;;;23.00;73.26
3132;BME280;62090;52.330;9.104;2023-08-06T09:05:16;99879.47;;;23.14;71.93
3132;BME280;62090;52.330;9.104;2023-08-06T09:07:49;99875.53;;;23.26;71.56
3132;BME280;62090;52.330;9.104;2023-08-06T09:10:25;99868.03;;;23.18;71.17
3132;BME280;62090;52.330;9.104;2023-08-06T09:12:56;99872.19;;;23.42;70.33
3132;BME280;62090;52.330;9.104;2023-08-06T09:15:28;99865.78;;;23.31;70.54
3132;BME280;62090;52.330;9.104;2023-08-06T09:17:58;99879.63;;;23.31;69.70
3132;BME280;62090;52.330;9.104;2023-08-06T09:20:28;99868.22;;;23.13;68.78
3132;BME280;62090;52.330;9.104;2023-08-06T09:23:07;99835.53;;;23.08;68.87
3132;BME280;62090;52.330;9.104;2023-08-06T09:25:40;99876.34;;;23.48;70.57
3132;BME280;62090;52.330;9.104;2023-08-06T09:28:10;99868.41;;;23.51;68.94
3132;BME280;62090;52.330;9.104;2023-08-06T09:30:40;99871.47;;;23.61;69.35
3132;BME280;62090;52.330;9.104;2023-08-06T09:33:10;99850.16;;;23.52;69.64
3132;BME280;62090;52.330;9.104;2023-08-06T09:35:42;99865.84;;;23.70;68.92
3132;BME280;62090;52.330;9.104;2023-08-06T09:38:13;99872.22;;;23.83;69.68
3132;BME280;62090;52.330;9.104;2023-08-06T09:40:45;99869.47;;;24.44;68.44
3132;BME280;62090;52.330;9.104;2023-08-06T09:43:19;99858.94;;;24.47;66.20
3132;BME280;62090;52.330;9.104;2023-08-06T09:45:48;99862.75;;;24.58;65.40
3132;BME280;62090;52.330;9.104;2023-08-06T09:48:18;99869.28;;;25.03;63.99
3132;BME280;62090;52.330;9.104;2023-08-06T09:50:49;99865.97;;;24.80;64.18
3132;BME280;62090;52.330;9.104;2023-08-06T09:53:22;99874.31;;;24.70;64.32
3132;BME280;62090;52.330;9.104;2023-08-06T09:55:56;99866.38;;;24.54;65.79
3132;BME280;62090;52.330;9.104;2023-08-06T09:58:26;99842.56;;;24.26;65.28
3132;BME280;62090;52.330;9.104;2023-08-06T10:01:01;99834.72;;;24.45;64.90
3132;BME280;62090;52.330;9.104;2023-08-06T10:03:32;99851.63;;;24.91;68.01
3132;BME280;62090;52.330;9.104;2023-08-06T10:06:03;99859.16;;;25.14;65.22
3132;BME280;62090;52.330;9.104;2023-08-06T10:08:35;99856.09;;;25.23;63.45
3132;BME280;62090;52.330;9.104;2023-08-06T10:11:12;99817.44;;;24.61;63.81
3132;BME280;62090;52.330;9.104;2023-08-06T10:13:45;99844.41;;;24.60;64.57
3132;BME280;62090;52.330;9.104;2023-08-06T10:16:16;99852.22;;;24.60;63.27
3132;BME280;62090;52.330;9.104;2023-08-06T10:18:47;99848.13;;;24.73;62.55
3132;BME280;62090;52.330;9.104;2023-08-06T10:21:17;99843.81;;;24.91;61.13
3132;BME280;62090;52.330;9.104;2023-08-06T10:23:54;99837.63;;;25.10;61.38
3132;BME280;62090;52.330;9.104;2023-08-06T10:26:30;99838.53;;;25.09;60.86
3132;BME280;62090;52.330;9.104;2023-08-06T10:32:05;99835.38;;;25.03;62.43
3132;BME280;62090;52.330;9.104;2023-08-06T10:34:53;99825.41;;;24.58;63.35
3132;BME280;62090;52.330;9.104;2023-08-06T10:37:24;99832.47;;;24.18;64.30
3132;BME280;62090;52.330;9.104;2023-08-06T10:40:06;99833.00;;;23.87;65.00
3132;BME280;62090;52.330;9.104;2023-08-06T10:42:40;99797.94;;;23.57;66.73
3132;BME280;62090;52.330;9.104;2023-08-06T10:45:14;99834.16;;;23.80;66.22
3132;BME280;62090;52.330;9.104;2023-08-06T10:47:45;99812.69;;;23.56;66.16
3132;BME280;62090;52.330;9.104;2023-08-06T10:50:16;99825.28;;;23.66;65.23
3132;BME280;62090;52.330;9.104;2023-08-06T10:52:47;99836.28;;;23.72;65.22
3132;BME280;62090;52.330;9.104;2023-08-06T10:55:24;99833.09;;;23.66;65.18
3132;BME280;62090;52.330;9.104;2023-08-06T10:57:57;99842.06;;;23.58;64.63
3132;BME280;62090;52.330;9.104;2023-08-06T11:00:27;99839.41;;;23.60;64.84
3132;BME280;62090;52.330;9.104;2023-08-06T11:02:57;99834.19;;;23.60;65.56
3132;BME280;62090;52.330;9.104;2023-08-06T11:05:27;99838.09;;;23.70;65.78
3132;BME280;62090;52.330;9.104;2023-08-06T11:07:57;99830.91;;;23.75;67.32
3132;BME280;62090;52.330;9.104;2023-08-06T11:10:27;99815.53;;;23.71;68.32
3132;BME280;62090;52.330;9.104;2023-08-06T11:13:03;99826.31;;;23.82;68.02
3132;BME280;62090;52.330;9.104;2023-08-06T11:15:34;99799.69;;;23.75;68.16
3132;BME280;62090;52.330;9.104;2023-08-06T11:18:04;99831.59;;;23.99;68.98
3132;BME280;62090;52.330;9.104;2023-08-06T11:20:36;99836.66;;;24.02;70.83
3132;BME280;62090;52.330;9.104;2023-08-06T11:23:06;99834.41;;;23.94;71.41
3132;BME280;62090;52.330;9.104;2023-08-06T11:25:36;99822.44;;;23.90;72.35
3132;BME280;62090;52.330;9.104;2023-08-06T11:28:09;99831.88;;;23.93;72.04
3132;BME280;62090;52.330;9.104;2023-08-06T11:30:40;99837.34;;;23.87;71.49
3132;BME280;62090;52.330;9.104;2023-08-06T11:33:10;99831.09;;;23.91;69.04
3132;BME280;62090;52.330;9.104;2023-08-06T11:35:40;99820.69;;;23.91;71.49
3132;BME280;62090;52.330;9.104;2023-08-06T11:38:13;99801.56;;;23.73;71.84
3132;BME280;62090;52.330;9.104;2023-08-06T11:40:43;99808.28;;;23.77;73.22
3132;BME280;62090;52.330;9.104;2023-08-06T11:43:17;99806.28;;;23.64;76.12
3132;BME280;62090;52.330;9.104;2023-08-06T11:45:49;99804.31;;;23.50;76.05
3132;BME280;62090;52.330;9.104;2023-08-06T11:48:21;99826.13;;;23.66;76.71
3132;BME280;62090;52.330;9.104;2023-08-06T11:50:54;99827.78;;;23.69;78.29
3132;BME280;62090;52.330;9.104;2023-08-06T11:53:27;99820.94;;;23.66;78.22
3132;BME280;62090;52.330;9.104;2023-08-06T11:55:58;99825.91;;;23.52;79.52
3132;BME280;62090;52.330;9.104;2023-08-06T11:58:31;99822.44;;;23.31;82.29
3132;BME280;62090;52.330;9.104;2023-08-06T12:01:01;99826.44;;;23.18;83.56
3132;BME280;62090;52.330;9.104;2023-08-06T12:03:31;99810.44;;;23.07;83.19
3132;BME280;62090;52.330;9.104;2023-08-06T12:06:01;99813.94;;;23.06;83.04
3132;BME280;62090;52.330;9.104;2023-08-06T12:08:31;99815.41;;;23.13;81.79
3132;BME280;62090;52.330;9.104;2023-08-06T12:11:01;99789.66;;;22.87;81.81
3132;BME280;62090;52.330;9.104;2023-08-06T12:13:33;99823.50;;;23.05;82.50
3132;BME280;62090;52.330;9.104;2023-08-06T12:16:03;99811.53;;;23.01;83.22
3132;BME280;62090;52.330;9.104;2023-08-06T12:18:33;99807.25;;;23.00;83.77
3132;BME280;62090;52.330;9.104;2023-08-06T12:21:03;99814.28;;;22.98;85.36
3132;BME280;62090;52.330;9.104;2023-08-06T12:23:33;99808.94;;;23.01;84.76
3132;BME280;62090;52.330;9.104;2023-08-06T12:26:03;99791.75;;;22.99;84.04
3132;BME280;62090;52.330;9.104;2023-08-06T12:28:35;99794.09;;;23.05;81.64
3132;BME280;62090;52.330;9.104;2023-08-06T12:31:05;99804.28;;;22.89;79.75
3132;BME280;62090;52.330;9.104;2023-08-06T12:33:35;99773.69;;;22.74;79.43
3132;BME280;62090;52.330;9.104;2023-08-06T12:36:05;99798.28;;;22.65;78.85
3132;BME280;62090;52.330;9.104;2023-08-06T12:38:35;99808.53;;;22.68;76.67
3132;BME280;62090;52.330;9.104;2023-08-06T12:41:05;99800.44;;;22.54;77.01
3132;BME280;62090;52.330;9.104;2023-08-06T12:43:37;99800.25;;;22.59;76.45
3132;BME280;62090;52.330;9.104;2023-08-06T12:46:07;99808.97;;;22.36;76.26
3132;BME280;62090;52.330;9.104;2023-08-06T12:48:38;99813.09;;;22.42;77.18
3132;BME280;62090;52.330;9.104;2023-08-06T12:51:08;99803.66;;;22.39;75.87
3132;BME280;62090;52.330;9.104;2023-08-06T12:53:38;99815.00;;;22.58;77.41
3132;BME280;62090;52.330;9.104;2023-08-06T12:56:08;99804.13;;;22.70;75.22
3132;BME280;62090;52.330;9.104;2023-08-06T12:58:41;99811.09;;;22.92;74.61
3132;BME280;62090;52.330;9.104;2023-08-06T13:01:11;99781.59;;;22.93;74.07
3132;BME280;62090;52.330;9.104;2023-08-06T13:03:41;99792.72;;;23.16;74.79
3132;BME280;62090;52.330;9.104;2023-08-06T13:06:11;99792.09;;;23.32;71.50
3132;BME280;62090;52.330;9.104;2023-08-06T13:08:41;99760.41;;;23.22;71.76
3132;BME280;62090;52.330;9.104;2023-08-06T13:11:11;99788.03;;;23.45;71.86
3132;BME280;62090;52.330;9.104;2023-08-06T13:13:44;99773.28;;;23.25;71.72
3132;BME280;62090;52.330;9.104;2023-08-06T13:16:14;99789.47;;;23.32;71.55
3132;BME280;62090;52.330;9.104;2023-08-06T13:18:43;99793.50;;;23.39;73.35
3132;BME280;62090;52.330;9.104;2023-08-06T13:21:13;99782.78;;;23.26;73.26
3132;BME280;62090;52.330;9.104;2023-08-06T13:23:43;99780.75;;;22.92;73.95
3132;BME280;62090;52.330;9.104;2023-08-06T13:26:14;99779.84;;;22.73;76.44
3132;BME280;62090;52.330;9.104;2023-08-06T13:28:47;99785.78;;;22.75;78.62